Tiempo atmosférico en la estación meteorológica de Cádiz, Cadiz (1 m.)

Fecha
DESCASC
Temp. máxima en grados centígrados (hora)
DESCASC
Temp. mínima en grados centígrados (hora)
DESCASC
Temp. media en grados centígrados
DESCASC
Racha de viento máxima en m/sg (hora)
DESCASC
Velocidad máxima media en intervalos de 10 minutos(hora)
DESCASC
Precipitaciones diarias en mm
DESCASC
Precipitaciones de 00:00 a 06:00 en mm
DESCASC
Precipitaciones de 06:00 a 12:00 en mm
DESCASC
Precipitaciones de 12:00 a 18:00 en mm
DESCASC
Precipitaciones de 18:00 a 24:00 en mm
DESCASC
17-08-2017 30.3 (15:40) 21.6 (05:50) 25.9 6.39 (20:10) 4.72 (02:30) 0 0 0 0 0
16-08-2017 29.9 (17:20) 22.2 (08:20) 26.1 8.06 (17:10) 5.56 (16:30) 0 0 0 0 0
15-08-2017 28.7 (13:30) 23.6 (00:00) 26.2 8.89 (16:10) 6.39 (16:00) 0 0 0 0 0
14-08-2017 30.1 (15:20) 23.5 (07:50) 26.8 16.39 (01:10) 11.11 (00:10) 0 0 0 0 0
13-08-2017 30 (15:10) 24.1 (00:00) 27.1 18.61 (00:10) 13.06 (00:10) 0 0 0 0 0
12-08-2017 29.8 (15:10) 23.9 (00:00) 26.8 16.67 (13:10) 12.78 (11:20) 0 0 0 0 0
11-08-2017 30.4 (18:20) 23.1 (00:00) 26.8 16.11 (06:10) 12.5 (14:00) 0 0 0 0 0
10-08-2017 28.4 (18:20) 20.7 (00:00) 24.6 14.72 (23:20) 10.83 (22:40) 0 0 0 0 0
09-08-2017 25.1 (01:30) 20.1 (00:00) 22.6 10.83 (02:40) 6.67 (02:40) 0 0 0 0 0
08-08-2017 27.8 (12:50) 22.7 (00:00) 25.3 10.56 (17:00) 7.22 (15:40) 0 0 0 0 0
07-08-2017 31.3 (12:50) 24.7 (00:00) 28 10.83 (13:20) 6.67 (13:20) 0 0 0 0 0
06-08-2017 31.7 (13:50) 23.6 (00:00) 27.7 7.22 (19:10) 5 (19:10) 0 0 0 0 0
05-08-2017 31.8 (18:50) 24.3 (00:00) 28 6.11 (17:30) 4.17 (15:40) 0 0 0 0 0
04-08-2017 32.1 (19:40) 22.9 (00:00) 27.5 5.83 (15:00) 4.44 (15:30) 0 0 0 0 0
03-08-2017 29.9 (17:50) 22 (00:00) 25.9 7.22 (16:10) 5 (16:10) 0 0 0 0 0
02-08-2017 27.8 (16:40) 20.7 (00:00) 24.3 9.44 (16:10) 6.39 (07:10) 0 0 0 0 0
01-08-2017 27 (16:20) 22.6 (00:00) 24.8 9.44 (20:00) 6.39 (20:00) 0 0 0 0 0
31-07-2017 28.2 (17:10) 22.9 (00:00) 25.6 9.17 (10:30) 6.67 (10:30) 0 0 0 0 0
30-07-2017 28 (19:30) 23.1 (00:00) 25.6 8.89 (14:30) 5.83 (10:30) 0 0 0 0 0
29-07-2017 28.1 (19:50) 21 (00:00) 24.6 7.78 (10:30) 5.28 (10:00) 0 0 0 0 0
28-07-2017 29.1 (18:20) 22.9 (00:00) 26 6.67 (17:40) 4.17 (19:20) 0 0 0 0 0
27-07-2017 28.8 (15:10) 23.2 (00:00) 26 6.94 (16:30) 4.72 (15:50) 0 0 0 0 0
26-07-2017 27.1 (16:00) 21.2 (00:00) 24.2 10.28 (06:30) 7.5 (06:30) 0 0 0 0 0
25-07-2017 27.4 (14:40) 21.8 (00:00) 24.6 6.94 (01:20) 5 (01:20) 0 0 0 0 0
24-07-2017 30.3 (17:20) 22 (00:00) 26.1 8.33 (18:00) 5.56 (17:40) 0 0 0 0 0
23-07-2017 26.6 (13:20) 21.3 (00:00) 23.9 9.72 (20:40) 6.94 (20:40) 0 0 0 0 0
22-07-2017 24.6 (14:50) 20.5 (00:00) 22.6 10.28 (18:30) 6.94 (18:00) 0 0 0 0 0
21-07-2017 24.7 (17:20) 20.2 (00:00) 22.5 7.22 (18:20) 5.56 (03:00) 0 0 0 0 0
20-07-2017 -- (--) -- (--) -- 10 (19:00) 6.39 (19:20) 0 0 0 0 0
19-07-2017 26.4 (18:20) 21.8 (00:00) 24.1 8.33 (16:40) 5.56 (20:00) 0 0 0 0 0

Gráficas

Temp. máximas Temp. mínimas Temp. medias Precipitaciones Rachas de viento máximas Velocidades máximas media en intervalos de 10 minutos

Datos horarios

Fecha y hora oficial Temperatura (ºC) Velocidad del viento (km/h) Dirección del viento Racha (km/h) Dirección de racha Precipitación (mm) Presión (hPa) Tendencia (hPa) Humedad (%)
2017-08-17 23:00:00 25.1 5 Norte 9 Noroeste 0 1015.7 1.1 84
2017-08-17 22:00:00 25.2 7 Noroeste 15 Noroeste 0 1015.4 1 81
2017-08-17 21:00:00 25.3 10 Noroeste 50 Noroeste 0 1015 0.5 80
2017-08-17 20:00:00 26.4 14 Noroeste 22 Noroeste 0 1014.6 -0.5 75
2017-08-17 19:00:00 27.5 13 Oeste 19 Oeste 0 1014.4 -1.1 69
2017-08-17 18:00:00 27.6 13 Oeste 19 Oeste 0 1014.5 -1.6 67
2017-08-17 17:00:00 28.5 12 Oeste 18 Oeste 0 1015.1 -1.4 62
2017-08-17 16:00:00 29.4 11 Oeste 17 Oeste 0 1015.5 -1.6 57
2017-08-17 15:00:00 29.2 9 Sudoeste 17 Sudoeste 0 1016.1 -1.1 59
2017-08-17 14:00:00 28.5 7 Sudoeste 13 Sudoeste 0 1016.5 -0.5 62
2017-08-17 13:00:00 26.3 10 Sur 18 Sur 0 1017.1 0.4 66
2017-08-17 12:00:00 26.3 9 Sudoeste 17 Sudoeste 0 1017.2 0.6 63
2017-08-17 11:00:00 26.7 3 Este 9 Nordeste 0 1017 1 67
2017-08-17 10:00:00 23.7 6 Nordeste 10 Nordeste 0 1016.7 1.2 77
2017-08-17 09:00:00 22 5 Nordeste 8 Nordeste 0 1016.6 1.4 90
2017-08-17 08:00:00 21.9 5 Sur 10 Sur 0 1016 0.6 93
2017-08-17 07:00:00 22 3 Sudoeste 13 Sur 0 1015.5 0.1 93
2017-08-17 06:00:00 21.9 9 Sudoeste 16 Sur 0 1015.2 -0.5 93
2017-08-17 05:00:00 22.8 13 Sur 22 Sur 0 1015.4 -0.6 87
2017-08-17 04:00:00 23.4 12 Sur 21 Sur 0 1015.4 -0.8 84
2017-08-17 03:00:00 23.6 14 Sur 22 Sur 0 1015.7 -0.6 78
2017-08-17 02:00:00 23.6 9 Sur 15 Sur 0 1016 -0.5 75
2017-08-17 01:00:00 24.7 9 Sur 12 Sudeste 0 1016.2 0.1 75
2017-08-17 00:00:00 25.2 3 Sudeste 5 Sudeste 0 1016.3 0.4 72
2017-08-16 23:00:00 25.4 0 Calma 14 Oeste 0 1016.5 0.6 64
2017-08-16 22:00:00 25.8 8 Noroeste 23 Noroeste 0 1016.1 0.1 59
2017-08-16 21:00:00 25.4 10 Oeste 24 Oeste 0 1015.9 -0.3 64
2017-08-16 20:00:00 26.1 15 Oeste 26 Oeste 0 1015.9 -0.6 63
2017-08-16 19:00:00 27.9 15 Oeste 22 Oeste 0 1016 -1.1 57
2017-08-16 18:00:00 29.3 17 Noroeste 29 Oeste 0 1016.2 -1.3 44
2017-08-16 17:00:00 29.2 19 Oeste 28 Oeste 0 1016.5 -1.4 38
2017-08-16 16:00:00 28 17 Oeste 24 Oeste 0 1017.1 -0.9 51
2017-08-16 15:00:00 28.3 15 Oeste 21 Oeste 0 1017.5 -0.9 50
2017-08-16 14:00:00 28.4 12 Oeste 18 Oeste 0 1017.9 -0.5 54
2017-08-16 13:00:00 28.5 3 Norte 10 Norte 0 1018 0 53
2017-08-16 12:00:00 25.9 7 Norte 13 Norte 0 1018.4 0.3 59
2017-08-16 11:00:00 24.4 9 Norte 10 Norte 0 1018.4 0.7 60
2017-08-16 10:00:00 24.1 8 Norte 9 Norte 0 1018 0.7 63
2017-08-16 09:00:00 22.7 0 Calma 7 Este 0 1018.1 1.2 84
2017-08-16 08:00:00 22.6 0 Calma 3 Sur 0 1017.7 0.9 89
2017-08-16 07:00:00 23 0 Calma 5 Sur 0 1017.3 0.2 88
2017-08-16 06:00:00 23.2 3 Sur 6 Sur 0 1016.9 -0.3 87
2017-08-16 05:00:00 23.3 2 Sur 9 Sur 0 1016.8 -0.6 86
2017-08-16 04:00:00 23.5 7 Sur 13 Sur 0 1017.1 -0.4 85
2017-08-16 03:00:00 23.5 7 Sur 12 Sur 0 1017.2 -0.3 86
2017-08-16 02:00:00 23.9 6 Sur 10 Sur 0 1017.4 -0.1 84
2017-08-16 01:00:00 24 8 Sur 17 Sur 0 1017.5 0.7 84
2017-08-16 00:00:00 24 4 Sur 8 Sur 0 1017.5 1 82
2017-08-15 23:00:00 24.2 4 Sur 7 Oeste 0 1017.5 1.4 81
2017-08-15 22:00:00 24.4 4 Sudoeste 12 Oeste 0 1016.8 0.7 80
2017-08-15 21:00:00 25.4 9 Sudoeste 18 Oeste 0 1016.5 0.3 75
2017-08-15 20:00:00 27 9 Sudoeste 18 Sudoeste 0 1016.1 -0.2 68
2017-08-15 19:00:00 27.6 10 Sudoeste 19 Sudoeste 0 1016.1 0.1 63
2017-08-15 18:00:00 27.8 9 Sudoeste 20 Oeste 0 1016.2 0 64
2017-08-15 17:00:00 28 13 Oeste 32 Noroeste 0 1016.3 0 64
2017-08-15 16:00:00 27.1 23 Noroeste 30 Noroeste 0 1016 -0.9 64
2017-08-15 15:00:00 27.9 20 Noroeste 26 Noroeste 0 1016.2 -0.7 62
2017-08-15 14:00:00 27.9 17 Noroeste 22 Noroeste 0 1016.3 -0.5 63
2017-08-15 13:00:00 27.5 14 Noroeste 18 Noroeste 0 1016.9 0.6 67
2017-08-15 12:00:00 26.7 13 Noroeste 15 Noroeste 0 1016.9 0.5 72
2017-08-15 11:00:00 25.7 11 Noroeste 14 Noroeste 0 1016.8 0.8 76
2017-08-15 10:00:00 25 6 Nordeste 10 Norte 0 1016.3 0.8 77
2017-08-15 09:00:00 23.9 6 Nordeste 11 Nordeste 0 1016.4 1.6 79
2017-08-15 08:00:00 24.1 5 Nordeste 18 Este 0 1016 1.2 81
2017-08-15 07:00:00 24.3 8 Este 11 Este 0 1015.5 0.3 80
2017-08-15 06:00:00 24.3 8 Este 13 Sudeste 0 1014.8 -0.2 80
2017-08-15 05:00:00 24.8 12 Sudeste 18 Sudeste 0 1014.8 -0.5 78
2017-08-15 04:00:00 24.7 9 Sudeste 12 Sudeste 0 1015.2 -0.3 78
2017-08-15 03:00:00 24.1 7 Norte 10 Norte 0 1015 -0.1 87
2017-08-15 02:00:00 24.3 7 Norte 18 Nordeste 0 1015.3 0.8 85
2017-08-15 01:00:00 25.6 10 Nordeste 20 Este 0 1015.5 1.9 72
2017-08-15 00:00:00 25.8 6 Este 28 Este 0 1015.1 2.7 72
2017-08-14 23:00:00 26.1 6 Este 28 Este 0 1014.5 2.9 69
2017-08-14 22:00:00 26.7 11 Este 30 Este 0 1013.6 2 65
2017-08-14 21:00:00 27.9 18 Este 45 Este 0 1012.4 0.5 57
2017-08-14 20:00:00 28.6 33 Sudeste 47 Sudeste 0 1011.6 -0.4 54
2017-08-14 19:00:00 29.2 31 Sudeste 42 Este 0 1011.6 -0.7 54
2017-08-14 18:00:00 29.3 34 Sudeste 41 Sudeste 0 1011.9 -0.9 56
2017-08-14 17:00:00 29.9 29 Este 44 Sudeste 0 1012 -1.1 56
2017-08-14 16:00:00 29.5 32 Sudeste 42 Sudeste 0 1012.3 -1 55
2017-08-14 15:00:00 29.9 27 Este 40 Este 0 1012.8 -0.6 56
2017-08-14 14:00:00 29.2 31 Este 46 Este 0 1013.1 -0.2 57
2017-08-14 13:00:00 29.1 29 Este 44 Este 0 1013.3 0.2 59
2017-08-14 12:00:00 28.1 31 Este 45 Este 0 1013.4 0.2 62
2017-08-14 11:00:00 27.1 30 Este 46 Este 0 1013.3 0.7 65
2017-08-14 10:00:00 25.6 34 Este 46 Este 0 1013.1 0.9 68
2017-08-14 09:00:00 25.2 9 Este 23 Este 0 1013.2 1.1 67
2017-08-14 08:00:00 23.6 11 Nordeste 41 Este 0 1012.6 0.3 69
2017-08-14 07:00:00 24.3 14 Este 32 Este 0 1012.2 -0.2 70
2017-08-14 06:00:00 24.4 17 Este 31 Este 0 1012.1 -0.9 68
2017-08-14 05:00:00 24.6 13 Este 31 Este 0 1012.3 -0.8 66
2017-08-14 04:00:00 24.5 11 Este 27 Este 0 1012.4 -0.6 64
2017-08-14 03:00:00 24.5 12 Este 45 Este 0 1013 0.1 63
2017-08-14 02:00:00 24.6 26 Este 59 Este 0 1013.1 0.5 65
2017-08-14 01:00:00 24.9 39 Este 54 Este 0 1013 0.7 65
2017-08-14 00:00:00 25.1 40 Este 61 Este 0 1012.9 0.9 65
2017-08-13 23:00:00 25.4 39 Este 61 Este 0 1012.6 1.1 63
2017-08-13 22:00:00 26 25 Este 42 Este 0 1012.3 0.8 59
2017-08-13 21:00:00 27.1 29 Este 52 Este 0 1012 0.3 52
2017-08-13 20:00:00 28.1 40 Este 54 Este 0 1011.5 -0.6 49
2017-08-13 19:00:00 29 38 Este 57 Sudeste 0 1011.5 -1 49
2017-08-13 18:00:00 29.6 38 Este 49 Este 0 1011.7 -1.5 47
2017-08-13 17:00:00 29.2 31 Sudeste 48 Este 0 1012.1 -1.5 51
2017-08-13 16:00:00 29.4 31 Este 45 Este 0 1012.5 -1.7 51
2017-08-13 15:00:00 29.8 33 Este 50 Este 0 1013.2 -1.2 50
2017-08-13 14:00:00 29.1 35 Este 55 Este 0 1013.6 -1.1 52
2017-08-13 13:00:00 28.1 44 Este 58 Este 0 1014.2 -0.4 54
2017-08-13 12:00:00 27 37 Este 52 Este 0 1014.4 0.1 60
2017-08-13 11:00:00 26.7 32 Este 45 Este 0 1014.7 0.8 62
2017-08-13 10:00:00 -- -- -- -- -- -- -- -- --
2017-08-13 09:00:00 -- -- -- -- -- -- -- -- --
2017-08-13 08:00:00 -- -- -- -- -- -- -- -- --
2017-08-13 07:00:00 -- -- -- -- -- -- -- -- --
2017-08-13 06:00:00 -- -- -- -- -- -- -- -- --
2017-08-13 05:00:00 -- -- -- -- -- -- -- -- --
2017-08-13 04:00:00 -- -- -- -- -- -- -- -- --
2017-08-13 03:00:00 -- -- -- -- -- -- -- -- --
2017-08-13 02:00:00 -- -- -- -- -- -- -- -- --
2017-08-13 01:00:00 -- -- -- -- -- -- -- -- --
2017-08-13 00:00:00 -- -- -- -- -- -- -- -- --
2017-08-12 23:00:00 -- -- -- -- -- -- -- -- --
2017-08-12 22:00:00 -- -- -- -- -- -- -- -- --
2017-08-12 21:00:00 -- -- -- -- -- -- -- -- --
2017-08-12 20:00:00 -- -- -- -- -- -- -- -- --
2017-08-12 19:00:00 -- -- -- -- -- -- -- -- --
2017-08-12 18:00:00 -- -- -- -- -- -- -- -- --
2017-08-12 17:00:00 -- -- -- -- -- -- -- -- --
2017-08-12 16:00:00 -- -- -- -- -- -- -- -- --
2017-08-12 15:00:00 -- -- -- -- -- -- -- -- --
2017-08-12 14:00:00 -- -- -- -- -- -- -- -- --
2017-08-12 13:00:00 -- -- -- -- -- -- -- -- --
2017-08-12 12:00:00 -- -- -- -- -- -- -- -- --
2017-08-12 11:00:00 -- -- -- -- -- -- -- -- --
2017-08-12 10:00:00 -- -- -- -- -- -- -- -- --
2017-08-12 09:00:00 -- -- -- -- -- -- -- -- --
2017-08-12 08:00:00 -- -- -- -- -- -- -- -- --
2017-08-12 07:00:00 -- -- -- -- -- -- -- -- --
2017-08-12 06:00:00 -- -- -- -- -- -- -- -- --
2017-08-12 05:00:00 -- -- -- -- -- -- -- -- --
2017-08-12 04:00:00 -- -- -- -- -- -- -- -- --
2017-08-12 03:00:00 -- -- -- -- -- -- -- -- --
2017-08-12 02:00:00 -- -- -- -- -- -- -- -- --
2017-08-12 01:00:00 -- -- -- -- -- -- -- -- --
2017-08-12 00:00:00 -- -- -- -- -- -- -- -- --
2017-08-11 23:00:00 -- -- -- -- -- -- -- -- --
2017-08-11 22:00:00 -- -- -- -- -- -- -- -- --
2017-08-11 21:00:00 -- -- -- -- -- -- -- -- --
2017-08-11 20:00:00 -- -- -- -- -- -- -- -- --
2017-08-11 19:00:00 -- -- -- -- -- -- -- -- --
2017-08-11 18:00:00 -- -- -- -- -- -- -- -- --
2017-08-11 17:00:00 29.9 33 Este 47 Sudeste 0 1015 -1.3 50
2017-08-11 16:00:00 30 31 Este 51 Sudeste 0 1015.4 -1.5 52
2017-08-11 15:00:00 29.1 34 Este 52 Este 0 1016.1 -1 55
2017-08-11 14:00:00 28.7 45 Este 57 Este 0 1016.3 -0.8 56
2017-08-11 13:00:00 29.5 33 Este 52 Este 0 1016.9 0 54
2017-08-11 12:00:00 29 24 Este 49 Este 0 1017.1 0.2 56
2017-08-11 11:00:00 28 27 Este 48 Este 0 1017.1 0.5 57
2017-08-11 10:00:00 26.1 15 Este 32 Este 0 1016.9 0.5 64
2017-08-11 09:00:00 23.5 10 Nordeste 16 Nordeste 0 1016.9 0.8 75
2017-08-11 08:00:00 23.6 11 Nordeste 41 Este 0 1016.6 0.2 72
2017-08-11 07:00:00 24.5 33 Este 58 Este 0 1016.4 -0.4 74
2017-08-11 06:00:00 24.6 39 Este 53 Este 0 1016.1 -1.1 72
2017-08-11 05:00:00 24.4 31 Este 48 Este 0 1016.4 -0.9 75
2017-08-11 04:00:00 24.4 22 Este 43 Este 0 1016.8 -0.8 76
2017-08-11 03:00:00 24 31 Este 51 Este 0 1017.2 0.1 78
2017-08-11 02:00:00 24.4 36 Este 53 Este 0 1017.3 0.4 77
2017-08-11 01:00:00 24.3 36 Este 56 Sudeste 0 1017.6 1.3 78
2017-08-11 00:00:00 24.4 39 Sudeste -- -- 0 1017.1 0.7 77
2017-08-10 23:00:00 24.9 36 Sudeste 50 Este 0 1016.9 0.8 76
2017-08-10 22:00:00 25.3 37 Sudeste 48 Este 0 1016.3 -0.2 73
2017-08-10 21:00:00 26.1 25 Sudeste 36 Sudeste 0 1016.4 -0.3 68
2017-08-10 20:00:00 28 6 Sur 14 Sudoeste 0 1016.1 -0.7 57
2017-08-10 19:00:00 28.1 11 Oeste 19 Oeste 0 1016.5 -0.8 55
2017-08-10 18:00:00 27.8 10 Sudoeste 21 Sudoeste 0 1016.7 -0.9 56
2017-08-10 17:00:00 27.5 12 Oeste 20 Sudoeste 0 1016.8 -1 55
2017-08-10 16:00:00 27.6 10 Sudoeste 18 Sudoeste 0 1017.3 -0.8 54
2017-08-10 15:00:00 26.8 12 Oeste 18 Sudoeste 0 1017.6 -0.2 54
2017-08-10 14:00:00 26.2 10 Sudoeste 19 Sudoeste 0 1017.8 0.4 60
2017-08-10 13:00:00 25.9 10 Sur 18 Sur 0 1018.1 1.5 59
2017-08-10 12:00:00 24.9 10 Sur 19 Sur 0 1017.8 1.4 63
2017-08-10 11:00:00 24.6 12 Sudeste 19 Sudeste 0 1017.4 1.6 65
2017-08-10 10:00:00 23.3 11 Sudeste 17 Sudeste 0 1016.6 1.2 75
2017-08-10 09:00:00 21.9 10 Sudeste 19 Este 0 1016.4 1.5 83
2017-08-10 08:00:00 20.7 10 Este 15 Este 0 1015.8 1.1 87
2017-08-10 07:00:00 21 8 Este 13 Este 0 1015.4 0.5 85
2017-08-10 06:00:00 21.8 5 Este 9 Este 0 1014.9 -0.3 80
2017-08-10 05:00:00 22.5 7 Norte 18 Noroeste 0 1014.7 -0.9 70
2017-08-10 04:00:00 22.9 12 Noroeste 18 Noroeste 0 1014.9 -0.7 66
2017-08-10 03:00:00 22.8 7 Oeste 13 Sudoeste 0 1015.2 -0.3 70
2017-08-10 02:00:00 22.4 8 Sudoeste 22 Sur 0 1015.6 0.3 84
2017-08-10 01:00:00 22.3 10 Sur 20 Sur 0 1015.6 1.1 84
2017-08-10 00:00:00 22.7 8 Sur 14 Sur 0 1015.5 1 78
2017-08-09 23:00:00 22.7 6 Sudoeste 15 Sudoeste 0 1015.3 1 72
2017-08-09 22:00:00 22.6 10 Sudoeste 19 Sudoeste 0 1014.5 -0.1 69
2017-08-09 21:00:00 23.2 12 Oeste 25 Oeste 0 1014.5 -0.6 65
2017-08-09 20:00:00 23.9 18 Sudoeste 28 Oeste 0 1014.3 -1.2 62
2017-08-09 19:00:00 24.4 18 Sudoeste 26 Sudoeste 0 1014.6 -1.4 56
2017-08-09 18:00:00 24.5 18 Sudoeste 26 Sudoeste 0 1015.1 -1.3 54
2017-08-09 17:00:00 24.4 18 Sudoeste 27 Sudoeste 0 1015.5 -1.3 56
2017-08-09 16:00:00 24.6 14 Sudoeste 28 Oeste 0 1016 -0.8 55
2017-08-09 15:00:00 23.6 19 Oeste 29 Sudoeste 0 1016.4 -0.3 60
2017-08-09 14:00:00 22.6 17 Oeste 26 Oeste 0 1016.8 0.4 63
2017-08-09 13:00:00 22.2 15 Oeste 26 Oeste 0 1016.8 0.7 65
2017-08-09 12:00:00 20.7 18 Oeste 28 Oeste 0 1016.7 1.3 69
2017-08-09 11:00:00 20.8 13 Oeste 24 Noroeste 0 1016.4 1.1 69
2017-08-09 10:00:00 20.6 13 Noroeste 24 Oeste 0 1016.1 1.5 69
2017-08-09 09:00:00 20.8 12 Oeste 20 Noroeste 0 1015.4 0.8 69
2017-08-09 08:00:00 21 7 Noroeste 21 Noroeste 0 1015.3 0.8 69
2017-08-09 07:00:00 21.3 10 Noroeste 16 Noroeste 0 1014.6 0.2 66
2017-08-09 06:00:00 22 11 Noroeste 22 Noroeste 0 1014.6 0.2 65
2017-08-09 05:00:00 22.7 15 Noroeste 25 Noroeste 0 1014.5 0 63
2017-08-09 04:00:00 23.2 19 Noroeste 36 Noroeste 0 1014.4 0 62
2017-08-09 03:00:00 23.8 22 Noroeste 39 Noroeste 0 1014.4 0.2 60
2017-08-09 02:00:00 24.4 19 Noroeste 31 Noroeste 0 1014.5 0.3 60
2017-08-09 01:00:00 24.4 16 Oeste 30 Oeste 0 1014.4 0.6 66
2017-08-09 00:00:00 24.1 17 Oeste 28 Oeste 0 1014.2 0.7 69
2017-08-08 23:00:00 24.4 18 Oeste 33 Noroeste 0 1014.2 0.9 66
2017-08-08 22:00:00 24.7 21 Oeste 35 Oeste 0 1013.8 0.4 60
2017-08-08 21:00:00 24.6 22 Oeste 35 Oeste 0 1013.5 -0.4 64
2017-08-08 20:00:00 25.3 23 Oeste 36 Oeste 0 1013.3 -0.8 63
2017-08-08 19:00:00 25.3 23 Oeste 34 Oeste 0 1013.4 -1.1 63
2017-08-08 18:00:00 26.9 20 Oeste 35 Noroeste 0 1013.9 -0.6 56
2017-08-08 17:00:00 26.6 25 Noroeste 38 Noroeste 0 1014.1 -0.5 54
2017-08-08 16:00:00 26.2 24 Oeste 36 Noroeste 0 1014.5 -0.3 58
2017-08-08 15:00:00 25.8 24 Oeste 32 Noroeste 0 1014.5 -0.1 58
2017-08-08 14:00:00 26.1 21 Noroeste 31 Noroeste 0 1014.6 0 57
2017-08-08 13:00:00 26.5 15 Noroeste 26 Noroeste 0 1014.8 0.5 56
2017-08-08 12:00:00 26.1 19 Noroeste 26 Noroeste 0 1014.6 0.6 51
2017-08-08 11:00:00 24.7 15 Noroeste 19 Noroeste 0 1014.6 1.3 58
2017-08-08 10:00:00 23.2 13 Norte 22 Norte 0 1014.3 1.2 66
2017-08-08 09:00:00 23 17 Noroeste 23 Noroeste 0 1014 1 64
2017-08-08 08:00:00 23.6 15 Noroeste 22 Noroeste 0 1013.3 0.5 60
2017-08-08 07:00:00 23.9 15 Noroeste 26 Noroeste 0 1013.1 0.5 63
2017-08-08 06:00:00 24.9 12 Noroeste 22 Noroeste 0 1013 -0.1 59
2017-08-08 05:00:00 25.8 12 Noroeste 17 Noroeste 0 1012.8 -0.5 54
2017-08-08 04:00:00 25.9 12 Noroeste 15 Noroeste 0 1012.6 -1 61
2017-08-08 03:00:00 24.6 5 Sudoeste 8 Sudoeste 0 1013.1 -0.1 71
2017-08-08 02:00:00 25.3 3 Sudoeste 6 Oeste 0 1013.3 0.5 65
2017-08-08 01:00:00 25.7 0 Calma 11 Noroeste 0 1013.6 1.4 59
2017-08-08 00:00:00 26.4 11 Noroeste 19 Noroeste 0 1013.2 1.2 59
2017-08-07 23:00:00 26.4 11 Noroeste 18 Oeste 0 1012.8 1.2 59
2017-08-07 22:00:00 26.6 8 Noroeste 24 Noroeste 0 1012.2 0.3 56
2017-08-07 21:00:00 27.6 13 Noroeste 24 Oeste 0 1012 -0.4 53
2017-08-07 20:00:00 28.8 10 Oeste 16 Noroeste 0 1011.6 -1 52
2017-08-07 19:00:00 29.9 10 Noroeste 23 Oeste 0 1011.9 -1.2 47
2017-08-07 18:00:00 28.7 15 Oeste 26 Oeste 0 1012.4 -0.9 50
2017-08-07 17:00:00 27.9 15 Oeste 30 Oeste 0 1012.6 -0.6 54
2017-08-07 16:00:00 29.7 13 Oeste 31 Oeste 0 1013.1 0.3 50
2017-08-07 15:00:00 28.9 11 Oeste 25 Oeste 0 1013.3 -0.1 57
2017-08-07 14:00:00 28.5 16 Noroeste 39 Oeste 0 1013.2 0 64
2017-08-07 13:00:00 30.9 4 Oeste 14 Oeste 0 1012.8 -0.9 55
2017-08-07 12:00:00 28.8 8 Sudoeste 16 Sur 0 1013.4 0.2 58
2017-08-07 11:00:00 28.9 4 Sudeste 10 Sur 0 1013.2 0.6 61
2017-08-07 10:00:00 27.3 0 Calma 7 Nordeste 0 1013.7 0.6 66
2017-08-07 09:00:00 26.4 4 Nordeste 15 Este 0 1013.2 0.4 67
2017-08-07 08:00:00 25.8 9 Este 17 Este 0 1012.6 -0.7 60
2017-08-07 07:00:00 25.1 4 Este 14 Este 0 1013.1 -0.4 71
2017-08-07 06:00:00 26.2 6 Este 13 Sudoeste 0 1012.8 -1.1 69
2017-08-07 05:00:00 25.9 8 Sudoeste 15 Sur 0 1013.3 -0.1 61
2017-08-07 04:00:00 26.6 13 Sudeste 15 Sudeste 0 1013.5 -0.7 66
2017-08-07 03:00:00 27.5 5 Sudoeste 28 Sudoeste 0 1013.9 0 52
2017-08-07 02:00:00 27.1 10 Este 19 Este 0 1013.4 -0.4 69
2017-08-07 01:00:00 26.6 0 Calma 9 Este 0 1014.2 0.7 66
2017-08-07 00:00:00 26.6 3 Este 7 Este 0 1013.9 0.8 65
2017-08-06 23:00:00 26.2 6 Noroeste 10 Noroeste 0 1013.8 0.9 63
2017-08-06 22:00:00 26.7 3 Norte 9 Noroeste 0 1013.5 0.8 60
2017-08-06 21:00:00 27.1 6 Oeste 14 Oeste 0 1013.1 0.5 57
2017-08-06 20:00:00 28.5 10 Oeste 26 Noroeste 0 1012.9 0.6 53
2017-08-06 19:00:00 29.9 13 Noroeste 24 Oeste 0 1012.7 0 45
2017-08-06 18:00:00 29.3 15 Oeste 26 Oeste 0 1012.6 -0.5 47
2017-08-06 17:00:00 30.5 12 Oeste 19 Oeste 0 1012.3 -1.2 43
2017-08-06 16:00:00 29.6 12 Oeste 18 Oeste 0 1012.7 -1.2 44
2017-08-06 15:00:00 30.3 9 Oeste 15 Noroeste 0 1013.1 -0.9 48
2017-08-06 14:00:00 30.2 10 Oeste 13 Oeste 0 1013.5 -0.1 43
2017-08-06 13:00:00 30.6 0 Calma 9 Oeste 0 1013.9 0.5 44
2017-08-06 12:00:00 27.5 5 Noroeste 12 Norte 0 1014 0.8 57
2017-08-06 11:00:00 27.3 0 Calma 9 Sur 0 1013.6 1 67
2017-08-06 10:00:00 26 3 Sudoeste 10 Sur 0 1013.4 1.4 74
2017-08-06 09:00:00 24.5 4 Nordeste 12 Nordeste 0 1013.2 0.5 81
2017-08-06 08:00:00 24 5 Nordeste 13 Norte 0 1012.6 -0.2 87
2017-08-06 07:00:00 24.4 6 Nordeste 9 Norte 0 1012 -1 86
2017-08-06 06:00:00 25.5 6 Sur 11 Sudeste 0 1012.7 -0.8 84
2017-08-06 05:00:00 24.8 0 Calma 11 Sudoeste 0 1012.8 -0.4 84
2017-08-06 04:00:00 25.4 6 Sudoeste 14 Sur 0 1013 -0.2 85
2017-08-06 03:00:00 25.5 11 Sudoeste 16 Sudoeste 0 1013.5 -0.1 84
2017-08-06 02:00:00 25.7 5 Sudoeste 9 Sudoeste 0 1013.2 -0.2 73
2017-08-06 01:00:00 26 2 Sudoeste 8 Sur 0 1013.2 0.8 73
2017-08-06 00:00:00 26.4 9 Sur 12 Sur 0 1013.6 1.5 69
2017-08-05 23:00:00 27.1 4 Sur 6 Sur 0 1013.4 1.5 66
2017-08-05 22:00:00 27.3 3 Oeste 10 Oeste 0 1012.4 0.4 57
2017-08-05 21:00:00 27.4 8 Oeste 14 Noroeste 0 1012.1 -0.1 62
2017-08-05 20:00:00 28.5 10 Oeste 19 Oeste 0 1011.9 -0.5 64
2017-08-05 19:00:00 31.6 13 Oeste 19 Oeste 0 1012 -0.8 44
2017-08-05 18:00:00 29.5 14 Oeste 22 Sudoeste 0 1012.2 -1.2 54
2017-08-05 17:00:00 29.9 12 Oeste 21 Oeste 0 1012.4 -1.3 62
2017-08-05 16:00:00 30 14 Sudoeste 21 Sudoeste 0 1012.8 -1.4 63
2017-08-05 15:00:00 28.7 11 Sudoeste 19 Sudoeste 0 1013.4 -0.7 66
2017-08-05 14:00:00 29 10 Sur 16 Sur 0 1013.7 -0.3 55
2017-08-05 13:00:00 29.3 8 Sudoeste 16 Sudoeste 0 1014.2 0.7 53
2017-08-05 12:00:00 28.3 9 Sudoeste 17 Sudoeste 0 1014.1 1 57
2017-08-05 11:00:00 28 8 Sudoeste 16 Oeste 0 1014 1.3 58
2017-08-05 10:00:00 26.8 11 Oeste 17 Oeste 0 1013.5 0.9 67
2017-08-05 09:00:00 25.8 4 Sudoeste 10 Sudoeste 0 1013.1 0.9 78
2017-08-05 08:00:00 25 5 Sur 8 Sur 0 1012.7 0.4 81
2017-08-05 07:00:00 25 7 Sur 15 Sur 0 1012.6 0.2 78
2017-08-05 06:00:00 24.4 9 Sur 14 Sur 0 1012.2 -0.5 82
2017-08-05 05:00:00 24.4 10 Sur 17 Sur 0 1012.3 -0.4 81
2017-08-05 04:00:00 24.9 8 Sur 14 Sur 0 1012.4 -0.6 79
2017-08-05 03:00:00 25.3 8 Sur 11 Sur 0 1012.7 -0.4 77
2017-08-05 02:00:00 26.7 6 Sur 8 Sur 0 1012.7 0.1 78
2017-08-05 01:00:00 27.2 4 Sudeste 6 Norte 0 1013 0.8 70
2017-08-05 00:00:00 27.2 7 Norte 11 Norte 0 1013.1 1.1 68
2017-08-04 23:00:00 27.5 2 Nordeste 17 Noroeste 0 1012.6 0.7 63
2017-08-04 22:00:00 28.1 12 Noroeste 18 Noroeste 0 1012.2 0.4 58
2017-08-04 21:00:00 28.6 12 Oeste 21 Oeste 0 1012 -0.3 56
2017-08-04 20:00:00 31.9 8 Oeste 14 Oeste 0 1011.9 -0.6 45
2017-08-04 19:00:00 31.5 13 Noroeste 19 Noroeste 0 1011.8 -1.4 44
2017-08-04 18:00:00 30 10 Noroeste 19 Noroeste 0 1012.3 -1.4 56
2017-08-04 17:00:00 30.9 13 Oeste 20 Sudoeste 0 1012.5 -1.6 53
2017-08-04 16:00:00 29.9 12 Sudoeste 21 Oeste 0 1013.2 -1.4 59
2017-08-04 15:00:00 28.3 13 Sudoeste 21 Sudoeste 0 1013.7 -1.1 69
2017-08-04 14:00:00 28.3 8 Sudoeste 15 Sur 0 1014.1 -0.6 65
2017-08-04 13:00:00 27.5 8 Sur 14 Sur 0 1014.6 0.2 72
2017-08-04 12:00:00 26.3 8 Sur 13 Sur 0 1014.8 0.9 76
2017-08-04 11:00:00 25.8 8 Sur 14 Sur 0 1014.7 1.1 75
2017-08-04 10:00:00 25.7 6 Sur 13 Sudeste 0 1014.4 1.1 73
2017-08-04 09:00:00 25.1 2 Sur 6 Sudeste 0 1013.9 0.8 76
2017-08-04 08:00:00 23.7 4 Sudeste 6 Sudeste 0 1013.6 0.5 75
2017-08-04 07:00:00 23.3 0 Calma 7 Nordeste 0 1013.3 0 72
2017-08-04 06:00:00 23 5 Nordeste 6 Nordeste 0 1013.1 -0.4 78
2017-08-04 05:00:00 23.7 0 Calma 6 Sur 0 1013.1 -0.7 78
2017-08-04 04:00:00 24 3 Sudoeste 9 Sur 0 1013.3 -1 78
2017-08-04 03:00:00 25.8 2 Sur 7 Este 0 1013.5 -1 74
2017-08-04 02:00:00 26.3 2 Nordeste 10 Sudeste 0 1013.8 -0.5 64
2017-08-04 01:00:00 26.3 7 Nordeste 20 Noroeste 0 1014.3 0.3 66
2017-08-04 00:00:00 26.2 12 Norte 22 Noroeste 0 1014.5 0.8 68
2017-08-03 23:00:00 26.5 14 Norte 21 Noroeste 0 1014.3 0.6 63
2017-08-03 22:00:00 27.2 15 Noroeste 25 Noroeste 0 1014 0 54
2017-08-03 21:00:00 27.8 14 Noroeste 22 Noroeste 0 1013.7 -0.8 55
2017-08-03 20:00:00 28.3 14 Noroeste 21 Oeste 0 1013.7 -1.5 56
2017-08-03 19:00:00 28.9 13 Oeste 24 Oeste 0 1014 -1.7 54
2017-08-03 18:00:00 29.7 14 Oeste 23 Noroeste 0 1014.5 -1.4 45
2017-08-03 17:00:00 29.1 13 Oeste 26 Oeste 0 1015.2 -1.4 44
2017-08-03 16:00:00 27.6 16 Oeste 23 Oeste 0 1015.7 -1.3 53
2017-08-03 15:00:00 29.3 13 Oeste 17 Sudoeste 0 1015.9 -1.1 48
2017-08-03 14:00:00 28.2 9 Oeste 18 Oeste 0 1016.6 -0.5 50
2017-08-03 13:00:00 27.8 8 Oeste 15 Oeste 0 1017 0 53
2017-08-03 12:00:00 27.5 0 Calma 5 Este 0 1017 0.4 55
2017-08-03 11:00:00 24.8 4 Norte 6 Norte 0 1017.1 1 64
2017-08-03 10:00:00 24.2 2 Nordeste 6 Sudeste 0 1017 1.1 78
2017-08-03 09:00:00 22.8 5 Sudeste 8 Este 0 1016.6 1 82
2017-08-03 08:00:00 22.1 4 Este 9 Sudeste 0 1016.1 0.2 87
2017-08-03 07:00:00 22.4 6 Sudeste 16 Sur 0 1015.9 -0.2 87
2017-08-03 06:00:00 22.4 9 Sur 16 Sudeste 0 1015.6 -0.7 83
2017-08-03 05:00:00 22.2 10 Sudeste 15 Sudeste 0 1015.9 -1 81
2017-08-03 04:00:00 22.6 6 Sur 13 Sudeste 0 1016.1 -1.2 83
2017-08-03 03:00:00 23.7 6 Sur 9 Sur 0 1016.3 -0.7 78
2017-08-03 02:00:00 24 6 Sur 9 Sur 0 1016.9 0.2 69
2017-08-03 01:00:00 24 3 Sudoeste 8 Noroeste 0 1017.3 1.5 63
2017-08-03 00:00:00 24.6 6 Noroeste 17 Noroeste 0 1017 1.9 62
2017-08-02 23:00:00 24.6 10 Noroeste 24 Noroeste 0 1016.7 1.9 63
2017-08-02 22:00:00 24.1 14 Noroeste 29 Oeste 0 1015.8 0.5 63
2017-08-02 21:00:00 24.7 18 Oeste 33 Oeste 0 1015.1 -0.3 62
2017-08-02 20:00:00 25.2 19 Oeste 30 Oeste 0 1014.8 -0.8 62
2017-08-02 19:00:00 26.2 18 Oeste 29 Oeste 0 1015.3 -0.5 59
2017-08-02 18:00:00 26.3 21 Oeste 32 Oeste 0 1015.4 -0.9 58
2017-08-02 17:00:00 26.7 22 Oeste 34 Oeste 0 1015.6 -1 53
2017-08-02 16:00:00 26.7 21 Oeste 33 Oeste 0 1015.8 -1 53
2017-08-02 15:00:00 26.9 18 Oeste 29 Oeste 0 1016.3 -0.4 57
2017-08-02 14:00:00 25.6 16 Oeste 23 Oeste 0 1016.6 0 59
2017-08-02 13:00:00 26.2 13 Oeste 18 Oeste 0 1016.8 0.6 55
2017-08-02 12:00:00 26.6 6 Noroeste 10 Norte 0 1016.7 0.7 52
2017-08-02 11:00:00 24 8 Norte 12 Norte 0 1016.6 1.3 61
2017-08-02 10:00:00 21.8 9 Norte 13 Norte 0 1016.2 1.2 69
2017-08-02 09:00:00 21.2 13 Norte 23 Norte 0 1016 0.9 75
2017-08-02 08:00:00 21.4 18 Norte 28 Norte 0 1015.3 0.2 63
2017-08-02 07:00:00 22.1 21 Norte 25 Norte 0 1015 -0.5 56
2017-08-02 06:00:00 23 14 Norte 19 Norte 0 1015.1 -0.7 53
2017-08-02 05:00:00 23.6 12 Norte 19 Norte 0 1015.1 -0.9 54
2017-08-02 04:00:00 22.3 0 Calma 10 Sudeste 0 1015.5 -0.9 78
2017-08-02 03:00:00 23.4 6 Sudeste 14 Noroeste 0 1015.8 -0.7 77
2017-08-02 02:00:00 23.5 0 Calma 6 Sudoeste 0 1016 -0.4 77
2017-08-02 01:00:00 23.4 3 Sudoeste 10 Oeste 0 1016.4 0.7 75
2017-08-02 00:00:00 23.8 5 Sur 9 Sudoeste 0 1016.5 1.2 72
2017-08-01 23:00:00 23.8 4 Sudoeste 20 Oeste 0 1016.4 1.9 67
2017-08-01 22:00:00 24 12 Oeste 21 Oeste 0 1015.7 1.4 63
2017-08-01 21:00:00 24.6 14 Oeste 32 Oeste 0 1015.3 0.4 59
2017-08-01 20:00:00 25 23 Oeste 34 Oeste 0 1014.5 -0.2 58
2017-08-01 19:00:00 25.7 19 Oeste 29 Oeste 0 1014.3 -0.6 54
2017-08-01 18:00:00 26.7 13 Oeste 23 Oeste 0 1014.9 0 48
2017-08-01 17:00:00 26.6 16 Oeste 25 Oeste 0 1014.7 0.2 49
2017-08-01 16:00:00 26 12 Sudoeste 18 Noroeste 0 1014.9 0.3 50
2017-08-01 15:00:00 25.1 12 Oeste 23 Oeste 0 1014.9 0.7 52
2017-08-01 14:00:00 24.4 10 Oeste 18 Oeste 0 1014.5 0.5 56
2017-08-01 13:00:00 24.3 9 Oeste 18 Oeste 0 1014.6 0.7 59
2017-08-01 12:00:00 23.8 10 Oeste 19 Noroeste 0 1014.2 1.5 61
2017-08-01 11:00:00 23.5 6 Noroeste 14 Noroeste 0 1014 1.7 62
2017-08-01 10:00:00 23.8 6 Noroeste 13 Noroeste 0 1013.9 1.8 63
2017-08-01 09:00:00 23.3 7 Noroeste 17 Noroeste 0 1012.7 1.3 65
2017-08-01 08:00:00 23.4 10 Noroeste 16 Noroeste 0 1012.3 0.8 63
2017-08-01 07:00:00 23.7 10 Noroeste 17 Noroeste 0 1012.1 0.6 62
2017-08-01 06:00:00 23.2 6 Oeste 19 Sur 0 1011.4 -0.2 64
2017-08-01 05:00:00 23.3 13 Sur 21 Sur 0 1011.5 -0.2 78
2017-08-01 04:00:00 23.4 13 Sur 19 Sur 0 1011.5 -0.3 79
2017-08-01 03:00:00 23.2 4 Sudoeste 8 Oeste 0 1011.6 -0.4 75
2017-08-01 02:00:00 23.1 5 Sudoeste 18 Sudoeste 0 1011.7 -0.4 75
2017-08-01 01:00:00 23.2 9 Sudoeste 16 Oeste 0 1011.8 0.4 68
2017-08-01 00:00:00 23.1 8 Sudoeste 14 Sudoeste 0 1012 1.4 66
2017-07-31 23:00:00 23.3 8 Sudoeste 14 Sudoeste 0 1012.1 2.1 63
2017-07-31 22:00:00 23.2 9 Sudoeste 22 Sudoeste 0 1011.4 1.3 63
2017-07-31 21:00:00 23.1 13 Sudoeste 31 Oeste 0 1010.6 0.3 64
2017-07-31 20:00:00 25.2 18 Oeste 31 Sudoeste 0 1010 -0.4 59
2017-07-31 19:00:00 26.8 17 Oeste 29 Oeste 0 1010.1 -1 53
2017-07-31 18:00:00 27.8 15 Oeste 27 Oeste 0 1010.3 -1.3 48
2017-07-31 17:00:00 27 12 Sudoeste 22 Sudoeste 0 1010.4 -1.1 48
2017-07-31 16:00:00 26.5 12 Sudoeste 22 Oeste 0 1011.1 -0.4 49
2017-07-31 15:00:00 25.9 9 Sudoeste 21 Oeste 0 1011.6 0.1 51
2017-07-31 14:00:00 25.3 12 Oeste 20 Oeste 0 1011.5 0.6 58
2017-07-31 13:00:00 26 10 Oeste 18 Oeste 0 1011.5 0.8 57
2017-07-31 12:00:00 25.6 6 Oeste 17 Oeste 0 1011.5 1.1 61
2017-07-31 11:00:00 25.4 9 Oeste 33 Sur 0 1010.9 0.9 68
2017-07-31 10:00:00 24.5 17 Sur 24 Sur 0 1010.7 1 81
2017-07-31 09:00:00 23.4 16 Sur 28 Sur 0 1010.4 0.8 88
2017-07-31 08:00:00 23 16 Sur 26 Sur 0 1010 0.1 90
2017-07-31 07:00:00 23.2 17 Sur 25 Sur 0 1009.7 -0.4 89
2017-07-31 06:00:00 23.2 14 Sur 26 Sur 0 1009.6 -0.9 89
2017-07-31 05:00:00 23.4 18 Sur 26 Sur 0 1009.9 -1 88
2017-07-31 04:00:00 23.5 12 Sur 21 Sur 0 1010.1 -1.2 87
2017-07-31 03:00:00 23.8 11 Sur 20 Sur 0 1010.5 -0.7 85
2017-07-31 02:00:00 23.8 11 Sur 24 Sudoeste 0 1010.9 -0.1 84
2017-07-31 01:00:00 24 10 Sur 21 Sur 0 1011.3 0.8 81
2017-07-31 00:00:00 24.5 10 Sur 19 Sur 0 1011.2 1 75
2017-07-30 23:00:00 24.6 7 Sudoeste 14 Sudoeste 0 1011 0.8 69
2017-07-30 22:00:00 24.8 8 Sudoeste 15 Sudoeste 0 1010.5 0.2 68
2017-07-30 21:00:00 26 10 Sur 15 Sur 0 1010.2 -0.7 65
2017-07-30 20:00:00 27.1 9 Sudoeste 22 Oeste 0 1010.2 -1.2 60
2017-07-30 19:00:00 27.5 13 Oeste 21 Sudoeste 0 1010.3 -1.7 63
2017-07-30 18:00:00 27.1 13 Sudoeste 22 Sudoeste 0 1010.9 -1.3 65
2017-07-30 17:00:00 27.1 13 Sudoeste 26 Sur 0 1011.4 -1.2 68
2017-07-30 16:00:00 25.7 19 Sur 28 Sur 0 1012 -1 75
2017-07-30 15:00:00 26 16 Sur 32 Sur 0 1012.2 -1.1 74
2017-07-30 14:00:00 27.1 20 Sur 29 Sur 0 1012.6 -0.4 69
2017-07-30 13:00:00 25.8 16 Sudeste 24 Sur 0 1013 -0.1 74
2017-07-30 12:00:00 25.5 15 Sur 26 Sur 0 1013.3 0.6 78
2017-07-30 11:00:00 24.5 19 Sur 28 Sur 0 1013 0.7 84
2017-07-30 10:00:00 24 19 Sur 28 Sur 0 1013.1 1 88
2017-07-30 09:00:00 23.6 13 Sur 21 Sur 0 1012.7 0.3 90
2017-07-30 08:00:00 23.2 12 Sur 20 Sur 0 1012.3 -0.1 90
2017-07-30 07:00:00 23.3 13 Sur 18 Sur 0 1012.1 -0.7 90
2017-07-30 06:00:00 23.5 8 Sur 18 Sur 0 1012.4 -1 89
2017-07-30 05:00:00 23.6 9 Sur 17 Sur 0 1012.4 -1.6 88
2017-07-30 04:00:00 23.9 9 Sur 15 Sur 0 1012.8 -1.5 84
2017-07-30 03:00:00 24.2 6 Sur 13 Sur 0 1013.4 -1.3 80
2017-07-30 02:00:00 25.1 6 Sur 12 Sur 0 1014 -0.4 75
2017-07-30 01:00:00 24.9 5 Sur 7 Sur 0 1014.3 0.5 76
2017-07-30 00:00:00 24.8 3 Oeste 8 Noroeste 0 1014.7 0.9 70
2017-07-29 23:00:00 25.2 5 Noroeste 16 Noroeste 0 1014.4 0.7 72
2017-07-29 22:00:00 25.3 10 Noroeste 15 Noroeste 0 1013.8 -0.4 72
2017-07-29 21:00:00 26.3 8 Oeste 15 Oeste 0 1013.8 -0.8 70
2017-07-29 20:00:00 27.7 9 Oeste 19 Oeste 0 1013.7 -1.3 66
2017-07-29 19:00:00 27.8 11 Sudoeste 17 Sudoeste 0 1014.2 -1.4 68
2017-07-29 18:00:00 26.6 11 Sudoeste 18 Sudoeste 0 1014.6 -1.5 72
2017-07-29 17:00:00 25.6 13 Sur 18 Sur 0 1015 -1.5 74
2017-07-29 16:00:00 25.8 9 Sur 18 Sur 0 1015.6 -1.2 72
2017-07-29 15:00:00 25.1 10 Sur 19 Sudoeste 0 1016.1 -0.5 74
2017-07-29 14:00:00 24.6 10 Sur 22 Sur 0 1016.5 -0.1 76
2017-07-29 13:00:00 23.8 10 Sur 19 Sur 0 1016.8 0.7 81
2017-07-29 12:00:00 22.8 12 Sur 23 Sudeste 0 1016.6 0.9 86
2017-07-29 11:00:00 21.5 13 Sur 28 Sur 0 1016.6 1.4 92
2017-07-29 10:00:00 21.4 19 Sudeste 27 Sudeste 0 1016.1 1.3 93
2017-07-29 09:00:00 21.5 15 Sudeste 24 Sudeste 0 1015.7 1.3 92
2017-07-29 08:00:00 22.4 14 Sur 22 Sur 0 1015.2 1.1 90
2017-07-29 07:00:00 23.1 9 Sur 15 Sur 0 1014.8 0.5 90
2017-07-29 06:00:00 23.2 9 Sur 17 Sur 0 1014.4 -0.2 90
2017-07-29 05:00:00 23.3 10 Sur 19 Sur 0 1014.1 -0.6 89
2017-07-29 04:00:00 23.7 9 Sur 22 Sur 0 1014.3 -0.5 89
2017-07-29 03:00:00 23.9 13 Sur 22 Sur 0 1014.6 -0.3 87
2017-07-29 02:00:00 24.1 12 Sur 18 Sur 0 1014.7 0.2 83
2017-07-29 01:00:00 24.1 3 Sur 6 Sudoeste 0 1014.8 0.5 78
2017-07-29 00:00:00 24.4 3 Sudoeste 7 Oeste 0 1014.9 0.8 73
2017-07-28 23:00:00 24.9 4 Oeste 12 Noroeste 0 1014.5 0.6 72
2017-07-28 22:00:00 25.1 5 Oeste 18 Noroeste 0 1014.3 0.4 69
2017-07-28 21:00:00 26.3 10 Oeste 19 Oeste 0 1014.1 -0.1 63
2017-07-28 20:00:00 27.8 11 Oeste 24 Oeste 0 1013.9 -0.6 58
2017-07-28 19:00:00 27 14 Oeste 23 Oeste 0 1013.9 -1.1 59
2017-07-28 18:00:00 28.4 9 Oeste 24 Oeste 0 1014.2 -1.1 54
2017-07-28 17:00:00 26.8 13 Oeste 20 Oeste 0 1014.5 -1.1 61
2017-07-28 16:00:00 27.9 12 Oeste 18 Sudoeste 0 1015 -0.8 60
2017-07-28 15:00:00 27.7 10 Oeste 16 Oeste 0 1015.3 -0.2 64
2017-07-28 14:00:00 26.7 8 Sudoeste 18 Sur 0 1015.6 0.3 70
2017-07-28 13:00:00 26.3 11 Sur 17 Sur 0 1015.8 0.6 76
2017-07-28 12:00:00 26.1 9 Sur 14 Sur 0 1015.5 1.3 77
2017-07-28 11:00:00 25.1 9 Sur 17 Sur 0 1015.3 1.2 81
2017-07-28 10:00:00 23.6 9 Sur 17 Sur 0 1015.2 1.4 85
2017-07-28 09:00:00 23.2 9 Sur 14 Sur 0 1014.2 0.6 84
2017-07-28 08:00:00 23.4 2 Sudoeste 7 Sur 0 1014.1 0.6 88
2017-07-28 07:00:00 23.3 0 Calma 3 Sudoeste 0 1013.8 0.2 87
2017-07-28 06:00:00 23.4 0 Calma 5 Oeste 0 1013.6 -0.3 84
2017-07-28 05:00:00 23.6 5 Oeste 7 Oeste 0 1013.5 -0.6 83
2017-07-28 04:00:00 24 3 Sudoeste 6 Sur 0 1013.6 -0.5 80
2017-07-28 03:00:00 24 4 Sudoeste 8 Sur 0 1013.9 0.3 75
2017-07-28 02:00:00 25 6 Sur 11 Sur 0 1014.1 0.7 69
2017-07-28 01:00:00 25 8 Sur 14 Sur 0 1014.1 1.3 69
2017-07-28 00:00:00 24.6 0 Calma 6 Sur 0 1013.6 0.9 68
2017-07-27 23:00:00 24.9 3 Sudoeste 10 Noroeste 0 1013.4 0.8 63
2017-07-27 22:00:00 25.2 6 Oeste 12 Oeste 0 1012.8 0.1 67
2017-07-27 21:00:00 26.6 8 Oeste 17 Oeste 0 1012.7 -0.3 65
2017-07-27 20:00:00 27.2 11 Oeste 18 Oeste 0 1012.6 -0.8 62
2017-07-27 19:00:00 27.9 8 Oeste 18 Sudoeste 0 1012.7 -1.1 65
2017-07-27 18:00:00 28.1 8 Sudoeste 22 Oeste 0 1013 -1 61
2017-07-27 17:00:00 27.8 14 Oeste 25 Oeste 0 1013.4 -0.9 65
2017-07-27 16:00:00 28.1 16 Oeste 23 Oeste 0 1013.8 -0.7 65
2017-07-27 15:00:00 28.3 13 Oeste 18 Oeste 0 1014 -0.8 62
2017-07-27 14:00:00 27.7 12 Oeste 17 Sudoeste 0 1014.3 -0.5 61
2017-07-27 13:00:00 27.4 8 Oeste 14 Sudoeste 0 1014.5 -0.1 63
2017-07-27 12:00:00 26.6 9 Oeste 13 Oeste 0 1014.8 0.7 64
2017-07-27 11:00:00 25.8 7 Oeste 14 Sudoeste 0 1014.8 1.2 69
2017-07-27 10:00:00 24.2 9 Sudoeste 15 Sudoeste 0 1014.6 1.5 78
2017-07-27 09:00:00 23.5 9 Sudoeste 17 Sur 0 1014.1 1 81
2017-07-27 08:00:00 23.7 9 Sur 13 Sur 0 1013.6 0.4 72
2017-07-27 07:00:00 23.8 12 Sudeste 15 Este 0 1013.1 -0.4 75
2017-07-27 06:00:00 23.9 12 Este 17 Este 0 1013.1 -0.5 77
2017-07-27 05:00:00 23.7 9 Este 12 Este 0 1013.2 -0.3 87
2017-07-27 04:00:00 23.7 2 Este 9 Este 0 1013.5 -0.3 85
2017-07-27 03:00:00 23.7 3 Nordeste 7 Este 0 1013.6 -0.1 85
2017-07-27 02:00:00 23.8 2 Este 5 Norte 0 1013.5 0.3 84
2017-07-27 01:00:00 23.8 4 Norte 10 Noroeste 0 1013.8 1 84
2017-07-27 00:00:00 24.4 6 Noroeste 9 Norte 0 1013.7 1.3 79
2017-07-26 23:00:00 24.1 3 Oeste 6 Norte 0 1013.2 1 76
2017-07-26 22:00:00 24.5 5 Norte 12 Noroeste 0 1012.8 0.4 78
2017-07-26 21:00:00 25.2 9 Noroeste 13 Noroeste 0 1012.4 -0.4 72
2017-07-26 20:00:00 25.4 9 Oeste 15 Oeste 0 1012.2 -1.1 71
2017-07-26 19:00:00 25.4 10 Oeste 16 Oeste 0 1012.4 -1.3 70
2017-07-26 18:00:00 25.8 10 Oeste 17 Oeste 0 1012.8 -1.5 69
2017-07-26 17:00:00 26.1 10 Oeste 18 Oeste 0 1013.3 -1.3 67
2017-07-26 16:00:00 27.1 11 Oeste 22 Sudoeste 0 1013.7 -1.1 65
2017-07-26 15:00:00 26.1 12 Sudoeste 24 Sur 0 1014.3 -0.3 68
2017-07-26 14:00:00 24.4 14 Sur 24 Sur 0 1014.6 0.3 73
2017-07-26 13:00:00 24.2 14 Sur 24 Sur 0 1014.8 0.5 75
2017-07-26 12:00:00 23.8 14 Sur 25 Sur 0 1014.6 0.9 77
2017-07-26 11:00:00 23.1 17 Sur 30 Sur 0 1014.3 1 81
2017-07-26 10:00:00 22.2 19 Sur 35 Sur 0 1014.3 1.6 83
2017-07-26 09:00:00 21.7 23 Sur 36 Sur 0 1013.7 1.2 87
2017-07-26 08:00:00 21.2 23 Sur 35 Sur 0 1013.3 1 89
2017-07-26 07:00:00 21.6 23 Sur 37 Sur 0 1012.7 0.4 90
2017-07-26 06:00:00 22.2 19 Sur 29 Sur 0 1012.5 -0.3 90
2017-07-26 05:00:00 22.1 23 Sudeste 30 Sudeste 0 1012.3 -0.7 90
2017-07-26 04:00:00 22.3 23 Sudeste 28 Sudeste 0 1012.3 -0.8 89
2017-07-26 03:00:00 22.7 17 Sudeste 24 Sudeste 0 1012.8 0.4 88
2017-07-26 02:00:00 23.1 11 Sur 17 Sur 0 1013 0.7 87
2017-07-26 01:00:00 23.1 10 Sudoeste 22 Sur 0 1013.1 1.3 87
2017-07-26 00:00:00 23.6 12 Sudoeste 18 Sudoeste 0 1012.4 0.9 81
2017-07-25 23:00:00 24 8 Sudoeste 16 Sur 0 1012.3 0.9 77
2017-07-25 22:00:00 24.5 7 Sudoeste 17 Sudoeste 0 1011.8 -0.1 74
2017-07-25 21:00:00 25.6 6 Sudoeste 14 Sudoeste 0 1011.5 -0.6 68
2017-07-25 20:00:00 26.5 8 Sudoeste 18 Sudoeste 0 1011.4 -1 67
2017-07-25 19:00:00 26.9 9 Sudoeste 21 Sudoeste 0 1011.9 -0.9 64
2017-07-25 18:00:00 26.3 12 Sudoeste 23 Sudoeste 0 1012.1 -1.2 63
2017-07-25 17:00:00 26.5 13 Sudoeste 23 Sudoeste 0 1012.4 -1.1 66
2017-07-25 16:00:00 26.3 13 Sudoeste 22 Sur 0 1012.8 -1 66
2017-07-25 15:00:00 26.5 11 Sudoeste 20 Oeste 0 1013.3 -0.4 65
2017-07-25 14:00:00 26.1 11 Sur 21 Sur 0 1013.5 -0.2 74
2017-07-25 13:00:00 26.2 12 Sur 25 Sur 0 1013.8 0.3 73
2017-07-25 12:00:00 26.1 10 Sur 17 Sur 0 1013.7 0.5 72
2017-07-25 11:00:00 25.9 5 Sur 9 Sudoeste 0 1013.7 0.5 75
2017-07-25 10:00:00 23.2 5 Sudeste 12 Sudeste 0 1013.5 0.6 88
2017-07-25 09:00:00 22.3 9 Sudeste 13 Sudeste 0 1013.2 0.5 89
2017-07-25 08:00:00 22.2 8 Sudeste 13 Sudeste 0 1013.2 0.2 90
2017-07-25 07:00:00 22.5 7 Sudeste 11 Sudeste 0 1012.9 -0.7 89
2017-07-25 06:00:00 22.7 9 Sudeste 14 Sudeste 0 1012.7 -1.3 89
2017-07-25 05:00:00 23.5 12 Sudeste 15 Sudeste 0 1013 -1.5 89
2017-07-25 04:00:00 23.8 11 Sur 23 Sur 0 1013.6 -1.2 88
2017-07-25 03:00:00 23.9 12 Sur 24 Sur 0 1014 -0.7 87
2017-07-25 02:00:00 24.3 16 Sur 25 Sur 0 1014.5 -0.3 83
2017-07-25 01:00:00 24.8 13 Sur 22 Sur 0 1014.8 0.3 80
2017-07-25 00:00:00 25.7 5 Sur 11 Sur 0 1014.7 0.4 70
2017-07-24 23:00:00 26.1 5 Sur 21 Oeste 0 1014.8 0.4 68
2017-07-24 22:00:00 25.5 17 Oeste 28 Oeste 0 1014.5 -0.3 66
2017-07-24 21:00:00 26.8 15 Oeste 27 Oeste 0 1014.3 -1 64
2017-07-24 20:00:00 27.4 18 Oeste 28 Oeste 0 1014.4 -1.6 63
2017-07-24 19:00:00 27.9 20 Oeste 28 Oeste 0 1014.8 -1.7 63
2017-07-24 18:00:00 28 19 Oeste 30 Oeste 0 1015.3 -1.6 56
2017-07-24 17:00:00 29.8 18 Oeste 28 Oeste 0 1016 -1.1 44
2017-07-24 16:00:00 28 17 Oeste 27 Oeste 0 1016.5 -1 53
2017-07-24 15:00:00 27.1 15 Oeste 22 Oeste 0 1016.9 -0.8 53
2017-07-24 14:00:00 28.8 14 Oeste 19 Oeste 0 1017.1 -0.6 52
2017-07-24 13:00:00 27.8 12 Sudoeste 15 Sudoeste 0 1017.5 -0.2 54
2017-07-24 12:00:00 26.4 4 Sur 7 Sudeste 0 1017.7 0.6 63
2017-07-24 11:00:00 24.6 2 Noroeste 10 Norte 0 1017.7 0.6 68
2017-07-24 10:00:00 23.5 5 Norte 7 Noroeste 0 1017.7 0.9 78
2017-07-24 09:00:00 22.9 5 Sudeste 8 Sudeste 0 1017.1 0.4 84
2017-07-24 08:00:00 22 3 Este 9 Este 0 1017.1 0.3 86
2017-07-24 07:00:00 22.3 4 Este 13 Sudeste 0 1016.8 -0.2 86
2017-07-24 06:00:00 23.1 8 Sudeste 12 Sudeste 0 1016.7 -0.9 86
2017-07-24 05:00:00 23.3 6 Sudoeste 15 Sur 0 1016.8 -1.1 86
2017-07-24 04:00:00 23.5 6 Sur 15 Sur 0 1017 -1.1 83
2017-07-24 03:00:00 23.3 10 Sur 15 Sur 0 1017.6 -0.4 81
2017-07-24 02:00:00 23.7 9 Sur 14 Sur 0 1017.9 0.5 73
2017-07-24 01:00:00 24 0 Calma 9 Oeste 0 1018.1 1.6 67
2017-07-24 00:00:00 24 0 Calma 16 Oeste 0 1018 1.8 67
2017-07-23 23:00:00 24.2 9 Noroeste 25 Noroeste 0 1017.4 1.3 64
2017-07-23 22:00:00 24.1 16 Noroeste 33 Oeste 0 1016.5 0.4 66
2017-07-23 21:00:00 24.6 22 Oeste 35 Oeste 0 1016.2 -0.3 66
2017-07-23 20:00:00 26.1 19 Oeste 30 Oeste 0 1016.1 -0.8 63
2017-07-23 19:00:00 25.3 22 Oeste 32 Oeste 0 1016.1 -1.3 66
2017-07-23 18:00:00 26 21 Oeste 34 Noroeste 0 1016.5 -1.1 63
2017-07-23 17:00:00 25.8 18 Oeste 29 Noroeste 0 1016.9 -1.3 60
2017-07-23 16:00:00 25.6 16 Oeste 26 Oeste 0 1017.4 -0.8 63
2017-07-23 15:00:00 24.8 18 Oeste 25 Oeste 0 1017.6 -0.5 68
2017-07-23 14:00:00 26 9 Sudoeste 20 Oeste 0 1018.2 0.6 67
2017-07-23 13:00:00 25.7 9 Sur 16 Sur 0 1018.2 0.8 71
2017-07-23 12:00:00 25.8 7 Sur 13 Sudoeste 0 1018.1 1.2 71
2017-07-23 11:00:00 24.9 7 Sur 15 Sudeste 0 1017.6 1 76
2017-07-23 10:00:00 23.5 10 Sudeste 14 Sudeste 0 1017.4 1.2 83
2017-07-23 09:00:00 22.5 8 Sudeste 15 Sur 0 1016.9 0.9 89
2017-07-23 08:00:00 22.1 9 Sur 19 Sur 0 1016.6 0.8 90
2017-07-23 07:00:00 22.1 13 Sur 19 Sur 0 1016.2 0.4 90
2017-07-23 06:00:00 22 10 Sur 21 Sur 0 1016 -0.1 90
2017-07-23 05:00:00 21.9 10 Sur 18 Sudeste 0 1015.8 -0.5 89
2017-07-23 04:00:00 21.6 12 Sudeste 17 Sur 0 1015.8 -0.5 87
2017-07-23 03:00:00 22.2 11 Sur 16 Sur 0 1016.1 -0.2 82
2017-07-23 02:00:00 22.8 8 Sur 13 Sudeste 0 1016.3 0.8 78
2017-07-23 01:00:00 22.7 4 Sudoeste 8 Sudoeste 0 1016.3 1.3 75
2017-07-23 00:00:00 22.8 6 Sudoeste 9 Sudoeste 0 1016.3 2.2 72
2017-07-22 23:00:00 22.9 6 Oeste 15 Oeste 0 1015.5 1.8 71
2017-07-22 22:00:00 23 10 Oeste 23 Oeste 0 1015 1.3 69
2017-07-22 21:00:00 23.3 17 Oeste 29 Oeste 0 1014.1 0.1 69
2017-07-22 20:00:00 24 19 Oeste 31 Oeste 0 1013.7 -0.5 68
2017-07-22 19:00:00 24.5 21 Oeste 37 Oeste 0 1013.7 -1.1 65
2017-07-22 18:00:00 24.3 25 Oeste 35 Oeste 0 1014 -0.9 62
2017-07-22 17:00:00 24.3 22 Oeste 31 Oeste 0 1014.2 -1.1 62
2017-07-22 16:00:00 24 19 Oeste 32 Oeste 0 1014.8 -0.6 66
2017-07-22 15:00:00 24.4 19 Oeste 28 Oeste 0 1014.9 -0.2 63
2017-07-22 14:00:00 23.1 16 Oeste 22 Oeste 0 1015.3 0.5 68
2017-07-22 13:00:00 23.6 10 Oeste 17 Oeste 0 1015.4 0.6 69
2017-07-22 12:00:00 23.9 4 Oeste 14 Oeste 0 1015.1 1.1 68
2017-07-22 11:00:00 21.8 4 Norte 12 Norte 0 1014.8 1.1 76
2017-07-22 10:00:00 21.3 10 Norte 13 Norte 0 1014.8 1.7 78
2017-07-22 09:00:00 21 3 Norte 9 Nordeste 0 1014 0.9 79
2017-07-22 08:00:00 21.2 9 Nordeste 16 Noroeste 0 1013.7 0.7 77
2017-07-22 07:00:00 21.8 12 Norte 17 Noroeste 0 1013.1 -0.1 67
2017-07-22 06:00:00 20.6 6 Noroeste 9 Noroeste 0 1013.1 -0.6 77
2017-07-22 05:00:00 21.7 6 Sudoeste 17 Sur 0 1013 -1.1 80
2017-07-22 04:00:00 21.8 9 Sudoeste 20 Sudoeste 0 1013.2 -0.7 78
2017-07-22 03:00:00 21.9 13 Sur 23 Sur 0 1013.7 -0.2 75
2017-07-22 02:00:00 22.2 12 Sur 21 Sur 0 1014.1 0.4 72
2017-07-22 01:00:00 22.2 12 Sur 19 Sur 0 1013.9 0.8 69
2017-07-22 00:00:00 21.9 6 Sudoeste 13 Sudoeste 0 1013.9 1.1 68
2017-07-21 23:00:00 21.3 6 Sudoeste 12 Sudoeste 0 1013.7 0.6 68
2017-07-21 22:00:00 21.2 8 Sudoeste 15 Sudoeste 0 1013.1 -0.3 67
2017-07-21 21:00:00 22.7 9 Oeste 22 Sudoeste 0 1012.8 -0.8 63
2017-07-21 20:00:00 23.1 13 Oeste 26 Sudoeste 0 1013.1 -0.9 61
2017-07-21 19:00:00 23.8 14 Oeste 26 Sudoeste 0 1013.4 -1.1 58
2017-07-21 18:00:00 23.9 16 Sudoeste 26 Sudoeste 0 1013.6 -1.2 56
2017-07-21 17:00:00 23.9 14 Oeste 24 Sudoeste 0 1014 -1.2 54
2017-07-21 16:00:00 23.3 13 Oeste 23 Oeste 0 1014.5 -0.7 58
2017-07-21 15:00:00 22.5 13 Oeste 24 Oeste 0 1014.8 -0.5 63
2017-07-21 14:00:00 22.3 12 Oeste 26 Oeste 0 1015.2 0.3 64
2017-07-21 13:00:00 21.5 13 Noroeste 22 Oeste 0 1015.2 0.7 66
2017-07-21 12:00:00 20.9 14 Noroeste 24 Oeste 0 1015.3 1.1 67
2017-07-21 11:00:00 21 13 Oeste 22 Oeste 0 1014.9 1.3 65
2017-07-21 10:00:00 20.7 11 Oeste 18 Oeste 0 1014.5 1.5 65
2017-07-21 09:00:00 20.4 11 Noroeste 17 Noroeste 0 1014.2 1.8 66
2017-07-21 08:00:00 20.3 12 Noroeste 20 Noroeste 0 1013.6 1.3 67
2017-07-21 07:00:00 20.8 14 Noroeste 22 Noroeste 0 1013 0.4 66
2017-07-21 06:00:00 21.3 11 Noroeste 18 Noroeste 0 1012.4 -0.2 64
2017-07-21 05:00:00 21.9 13 Noroeste 21 Noroeste 0 1012.3 -0.6 63
2017-07-21 04:00:00 22.6 14 Noroeste 24 Noroeste 0 1012.6 -0.5 59
2017-07-21 03:00:00 23.2 20 Norte 24 Norte 0 1012.6 -0.5 61
2017-07-21 02:00:00 22.7 14 Sudoeste 23 Sur 0 1012.9 0.2 77
2017-07-21 01:00:00 22.4 12 Sudoeste 24 Sudoeste 0 1013.1 0.4 74
2017-07-21 00:00:00 22.4 13 Sudoeste 22 Sudoeste 0 1013.1 0.5 72
2017-07-20 23:00:00 22.6 10 Sudoeste 19 Sudoeste 0 1012.7 0 69
2017-07-20 22:00:00 22.2 13 Oeste 21 Oeste 0 1012.7 -0.4 65
2017-07-20 21:00:00 23.3 13 Sudoeste 28 Oeste 0 1012.6 -0.9 60
2017-07-20 20:00:00 23.4 19 Sudoeste 31 Sudoeste 0 1012.7 -1.1 60
2017-07-20 19:00:00 24 19 Sudoeste 36 Sudoeste 0 1013.1 -1.3 56
2017-07-20 18:00:00 24.7 17 Sudoeste 28 Sudoeste 0 1013.5 -1.3 53
2017-07-20 17:00:00 24.8 17 Oeste 28 Oeste 0 1013.8 -1.4 54
2017-07-20 16:00:00 25.1 17 Oeste 30 Oeste 0 1014.4 -1 54
2017-07-20 15:00:00 24 14 Oeste 27 Oeste 0 1014.8 -0.7 57
2017-07-20 14:00:00 23.1 16 Oeste 26 Oeste 0 1015.2 -0.1 62
2017-07-20 13:00:00 23.9 15 Oeste 24 Oeste 0 1015.4 0.4 63
2017-07-20 12:00:00 23.5 15 Oeste 24 Oeste 0 1015.5 0.8 66
2017-07-20 11:00:00 22.7 16 Noroeste 23 Noroeste 0 1015.3 1.1 69
2017-07-20 10:00:00 23.2 12 Noroeste 18 Noroeste 0 1015 1.1 70
2017-07-20 09:00:00 23.2 8 Oeste 13 Noroeste 0 1014.7 1 69
2017-07-20 08:00:00 22.9 8 Noroeste 13 Noroeste 0 1014.2 0.4 72
2017-07-20 07:00:00 22.7 10 Noroeste 18 Noroeste 0 1013.9 -0.2 71
2017-07-20 06:00:00 23 10 Noroeste 17 Noroeste 0 1013.7 -0.8 70
2017-07-20 05:00:00 23.6 13 Noroeste 19 Noroeste 0 1013.8 -1 70
2017-07-20 04:00:00 24 12 Noroeste 19 Noroeste 0 1014.1 -1.1 69
2017-07-20 03:00:00 24.3 12 Noroeste 18 Oeste 0 1014.5 -0.8 71
2017-07-20 02:00:00 23.5 8 Sudoeste 15 Sur 0 1014.8 0 82
2017-07-20 01:00:00 23.6 9 Sudoeste 15 Sur 0 1015.2 0.8 79
2017-07-20 00:00:00 23.8 5 Sudoeste 16 Oeste 0 1015.3 1.2 78
2017-07-19 23:00:00 23.7 10 Oeste 19 Oeste 0 1014.8 0.7 78
2017-07-19 22:00:00 23.9 9 Oeste 22 Oeste 0 1014.4 0 78
2017-07-19 21:00:00 25.2 13 Oeste 27 Sudoeste 0 1014.1 -0.4 70
2017-07-19 20:00:00 24.7 20 Oeste 29 Oeste 0 1014.1 -0.9 67
2017-07-19 19:00:00 25.4 16 Sudoeste 26 Sudoeste 0 1014.4 -1 65
2017-07-19 18:00:00 25.8 18 Oeste 29 Oeste 0 1014.5 -0.9 65
2017-07-19 17:00:00 26 16 Oeste 30 Sudoeste 0 1015 -0.8 65
2017-07-19 16:00:00 25 18 Oeste 30 Oeste 0 1015.4 -0.5 64
2017-07-19 15:00:00 24.3 18 Oeste 27 Noroeste 0 1015.4 -0.5 68
2017-07-19 14:00:00 25 9 Oeste 21 Oeste 0 1015.8 0 69
2017-07-19 13:00:00 24.4 9 Oeste 18 Sudoeste 0 1015.9 0.3 69
2017-07-19 12:00:00 24.7 8 Sudoeste 13 Sur 0 1015.9 0.8 69
2017-07-19 11:00:00 23.9 7 Sur 14 Sur 0 1015.8 1.2 72
2017-07-19 10:00:00 22.5 6 Sur 22 Sudoeste 0 1015.6 1.5 80
2017-07-19 09:00:00 21.9 10 Sur 23 Sur 0 1015.1 1.4 85
2017-07-19 08:00:00 22 9 Sur 20 Sudoeste 0 1014.6 1.2 87
2017-07-19 07:00:00 22 10 Sudoeste 21 Sudoeste 0 1014.1 0.8 88
2017-07-19 06:00:00 22.4 10 Sudoeste 21 Sudoeste 0 1013.7 0.1 89
2017-07-19 05:00:00 22.5 10 Sudoeste 22 Sudoeste 0 1013.4 -0.3 90
2017-07-19 04:00:00 23.2 15 Sur 24 Sur 0 1013.3 -0.5 89
2017-07-19 03:00:00 23.4 13 Sur 21 Sur 0 1013.6 0 88
2017-07-19 02:00:00 24.2 10 Sur 16 Sur 0 1013.7 0.9 85
2017-07-19 01:00:00 24.3 8 Sur 13 Sur 0 1013.8 2 81
2017-07-19 00:00:00 24.5 6 Oeste 13 Oeste 0 1013.6 2 79